sensor_id;sensor_type;location;lat;lon;timestamp;temperature;humidity
17565;DHT22;62994;52.126;5.596;2022-09-09T00:01:47;16.00;99.90
17565;DHT22;62994;52.126;5.596;2022-09-09T00:04:24;16.10;99.90
17565;DHT22;62994;52.126;5.596;2022-09-09T00:06:58;16.10;99.90
17565;DHT22;62994;52.126;5.596;2022-09-09T00:09:29;16.10;99.90
17565;DHT22;62994;52.126;5.596;2022-09-09T00:12:02;16.10;99.90
17565;DHT22;62994;52.126;5.596;2022-09-09T00:14:37;16.10;99.90
17565;DHT22;62994;52.126;5.596;2022-09-09T00:17:09;16.20;99.90
17565;DHT22;62994;52.126;5.596;2022-09-09T00:19:43;16.20;99.90
17565;DHT22;62994;52.126;5.596;2022-09-09T00:22:17;16.20;99.90
17565;DHT22;62994;52.126;5.596;2022-09-09T00:24:46;16.20;99.90
17565;DHT22;62994;52.126;5.596;2022-09-09T00:27:22;16.20;99.90
17565;DHT22;62994;52.126;5.596;2022-09-09T00:29:53;16.20;99.90
17565;DHT22;62994;52.126;5.596;2022-09-09T00:32:22;16.10;99.90
17565;DHT22;62994;52.126;5.596;2022-09-09T00:34:54;16.10;99.90
17565;DHT22;62994;52.126;5.596;2022-09-09T00:37:22;16.10;99.90
17565;DHT22;62994;52.126;5.596;2022-09-09T00:39:53;16.10;99.90
17565;DHT22;62994;52.126;5.596;2022-09-09T00:42:26;16.00;99.90
17565;DHT22;62994;52.126;5.596;2022-09-09T00:45:01;16.00;99.90
17565;DHT22;62994;52.126;5.596;2022-09-09T00:47:41;16.00;99.90
17565;DHT22;62994;52.126;5.596;2022-09-09T00:50:22;15.90;99.90
17565;DHT22;62994;52.126;5.596;2022-09-09T00:53:02;15.90;99.90
17565;DHT22;62994;52.126;5.596;2022-09-09T00:55:40;15.80;99.90
17565;DHT22;62994;52.126;5.596;2022-09-09T00:58:10;15.70;99.90
17565;DHT22;62994;52.126;5.596;2022-09-09T01:00:42;15.70;99.90
17565;DHT22;62994;52.126;5.596;2022-09-09T01:03:22;15.70;99.90
17565;DHT22;62994;52.126;5.596;2022-09-09T01:06:00;15.60;99.90
17565;DHT22;62994;52.126;5.596;2022-09-09T01:08:48;15.60;99.90
17565;DHT22;62994;52.126;5.596;2022-09-09T01:11:21;15.60;99.90
17565;DHT22;62994;52.126;5.596;2022-09-09T01:13:55;15.60;99.90
17565;DHT22;62994;52.126;5.596;2022-09-09T01:16:25;15.60;99.90
17565;DHT22;62994;52.126;5.596;2022-09-09T01:18:54;15.60;99.90
17565;DHT22;62994;52.126;5.596;2022-09-09T01:21:29;15.60;99.90
17565;DHT22;62994;52.126;5.596;2022-09-09T01:24:14;15.50;99.90
17565;DHT22;62994;52.126;5.596;2022-09-09T01:26:45;15.60;99.90
17565;DHT22;62994;52.126;5.596;2022-09-09T01:29:14;15.60;99.90
17565;DHT22;62994;52.126;5.596;2022-09-09T01:31:52;15.60;99.90
17565;DHT22;62994;52.126;5.596;2022-09-09T01:34:21;15.60;99.90
17565;DHT22;62994;52.126;5.596;2022-09-09T01:36:55;15.60;99.90
17565;DHT22;62994;52.126;5.596;2022-09-09T01:39:23;15.60;99.90
17565;DHT22;62994;52.126;5.596;2022-09-09T01:41:53;15.60;99.90
17565;DHT22;62994;52.126;5.596;2022-09-09T01:44:21;15.60;99.90
17565;DHT22;62994;52.126;5.596;2022-09-09T01:46:49;15.50;99.90
17565;DHT22;62994;52.126;5.596;2022-09-09T01:49:16;15.50;99.90
17565;DHT22;62994;52.126;5.596;2022-09-09T01:51:44;15.50;99.90
17565;DHT22;62994;52.126;5.596;2022-09-09T01:54:13;15.40;99.90
17565;DHT22;62994;52.126;5.596;2022-09-09T01:56:47;15.40;99.90
17565;DHT22;62994;52.126;5.596;2022-09-09T01:59:50;15.40;99.90
17565;DHT22;62994;52.126;5.596;2022-09-09T02:02:24;15.30;99.90
17565;DHT22;62994;52.126;5.596;2022-09-09T02:04:55;15.20;99.90
17565;DHT22;62994;52.126;5.596;2022-09-09T02:07:35;15.20;99.90
17565;DHT22;62994;52.126;5.596;2022-09-09T02:10:11;15.20;99.90
17565;DHT22;62994;52.126;5.596;2022-09-09T02:12:47;15.10;99.90
17565;DHT22;62994;52.126;5.596;2022-09-09T02:15:20;15.10;99.90
17565;DHT22;62994;52.126;5.596;2022-09-09T02:17:49;15.10;99.90
17565;DHT22;62994;52.126;5.596;2022-09-09T02:20:19;15.00;99.90
17565;DHT22;62994;52.126;5.596;2022-09-09T02:22:48;15.00;99.90
17565;DHT22;62994;52.126;5.596;2022-09-09T02:25:18;15.00;99.90
17565;DHT22;62994;52.126;5.596;2022-09-09T02:27:47;15.00;99.90
17565;DHT22;62994;52.126;5.596;2022-09-09T02:30:17;14.90;99.90
17565;DHT22;62994;52.126;5.596;2022-09-09T02:32:46;15.00;99.90
17565;DHT22;62994;52.126;5.596;2022-09-09T02:35:18;15.00;99.90
17565;DHT22;62994;52.126;5.596;2022-09-09T02:37:46;14.90;99.90
17565;DHT22;62994;52.126;5.596;2022-09-09T02:40:14;14.90;99.90
17565;DHT22;62994;52.126;5.596;2022-09-09T02:42:43;14.80;99.90
17565;DHT22;62994;52.126;5.596;2022-09-09T02:45:12;14.80;99.90
17565;DHT22;62994;52.126;5.596;2022-09-09T02:47:47;14.70;99.90
17565;DHT22;62994;52.126;5.596;2022-09-09T02:50:20;14.70;99.90
17565;DHT22;62994;52.126;5.596;2022-09-09T02:52:58;14.70;99.90
17565;DHT22;62994;52.126;5.596;2022-09-09T02:55:38;14.70;99.90
17565;DHT22;62994;52.126;5.596;2022-09-09T02:58:07;14.70;99.90
17565;DHT22;62994;52.126;5.596;2022-09-09T03:00:36;14.60;99.90
17565;DHT22;62994;52.126;5.596;2022-09-09T03:03:06;14.60;99.90
17565;DHT22;62994;52.126;5.596;2022-09-09T03:05:34;14.50;99.90
17565;DHT22;62994;52.126;5.596;2022-09-09T03:08:01;14.50;99.90
17565;DHT22;62994;52.126;5.596;2022-09-09T03:10:28;14.60;99.90
17565;DHT22;62994;52.126;5.596;2022-09-09T03:12:55;14.60;99.90
17565;DHT22;62994;52.126;5.596;2022-09-09T03:15:22;14.50;99.90
17565;DHT22;62994;52.126;5.596;2022-09-09T03:17:49;14.60;99.90
17565;DHT22;62994;52.126;5.596;2022-09-09T03:20:18;14.60;99.90
17565;DHT22;62994;52.126;5.596;2022-09-09T03:22:45;14.60;99.90
17565;DHT22;62994;52.126;5.596;2022-09-09T03:25:12;14.60;99.90
17565;DHT22;62994;52.126;5.596;2022-09-09T03:27:39;14.60;99.90
17565;DHT22;62994;52.126;5.596;2022-09-09T03:30:06;14.50;99.90
17565;DHT22;62994;52.126;5.596;2022-09-09T03:32:33;14.50;99.90
17565;DHT22;62994;52.126;5.596;2022-09-09T03:35:00;14.60;99.90
17565;DHT22;62994;52.126;5.596;2022-09-09T03:37:29;14.50;99.90
17565;DHT22;62994;52.126;5.596;2022-09-09T03:39:57;14.50;99.90
17565;DHT22;62994;52.126;5.596;2022-09-09T03:42:25;14.50;99.90
17565;DHT22;62994;52.126;5.596;2022-09-09T03:44:53;14.50;99.90
17565;DHT22;62994;52.126;5.596;2022-09-09T03:47:20;14.60;99.90
17565;DHT22;62994;52.126;5.596;2022-09-09T03:49:47;14.50;99.90
17565;DHT22;62994;52.126;5.596;2022-09-09T03:52:15;14.60;99.90
17565;DHT22;62994;52.126;5.596;2022-09-09T03:54:45;14.60;99.90
17565;DHT22;62994;52.126;5.596;2022-09-09T03:57:12;14.70;99.90
17565;DHT22;62994;52.126;5.596;2022-09-09T03:59:42;14.70;99.90
17565;DHT22;62994;52.126;5.596;2022-09-09T04:02:09;14.70;99.90
17565;DHT22;62994;52.126;5.596;2022-09-09T04:04:36;14.70;99.90
17565;DHT22;62994;52.126;5.596;2022-09-09T04:07:03;14.80;99.90
17565;DHT22;62994;52.126;5.596;2022-09-09T04:09:32;14.80;99.90
17565;DHT22;62994;52.126;5.596;2022-09-09T04:12:02;14.80;99.90
17565;DHT22;62994;52.126;5.596;2022-09-09T04:14:29;14.80;99.90
17565;DHT22;62994;52.126;5.596;2022-09-09T04:16:56;14.80;99.90
17565;DHT22;62994;52.126;5.596;2022-09-09T04:19:22;14.70;99.90
17565;DHT22;62994;52.126;5.596;2022-09-09T04:21:49;14.70;99.90
17565;DHT22;62994;52.126;5.596;2022-09-09T04:24:16;14.70;99.90
17565;DHT22;62994;52.126;5.596;2022-09-09T04:26:44;14.70;99.90
17565;DHT22;62994;52.126;5.596;2022-09-09T04:29:14;14.70;99.90
17565;DHT22;62994;52.126;5.596;2022-09-09T04:31:41;14.70;99.90
17565;DHT22;62994;52.126;5.596;2022-09-09T04:34:08;14.70;99.90
17565;DHT22;62994;52.126;5.596;2022-09-09T04:36:35;14.80;99.90
17565;DHT22;62994;52.126;5.596;2022-09-09T04:39:03;14.80;99.90
17565;DHT22;62994;52.126;5.596;2022-09-09T04:41:30;14.80;99.90
17565;DHT22;62994;52.126;5.596;2022-09-09T04:43:58;14.80;99.90
17565;DHT22;62994;52.126;5.596;2022-09-09T04:46:26;14.80;99.90
17565;DHT22;62994;52.126;5.596;2022-09-09T04:48:53;14.80;99.90
17565;DHT22;62994;52.126;5.596;2022-09-09T04:51:20;14.90;99.90
17565;DHT22;62994;52.126;5.596;2022-09-09T04:53:47;14.90;99.90
17565;DHT22;62994;52.126;5.596;2022-09-09T04:56:17;14.90;99.90
17565;DHT22;62994;52.126;5.596;2022-09-09T04:58:44;14.90;99.90
17565;DHT22;62994;52.126;5.596;2022-09-09T05:01:13;14.90;99.90
17565;DHT22;62994;52.126;5.596;2022-09-09T05:03:41;14.90;99.90
17565;DHT22;62994;52.126;5.596;2022-09-09T05:06:12;14.90;99.90
17565;DHT22;62994;52.126;5.596;2022-09-09T05:08:40;14.80;99.90
17565;DHT22;62994;52.126;5.596;2022-09-09T05:11:14;14.80;99.90
17565;DHT22;62994;52.126;5.596;2022-09-09T05:13:42;14.90;99.90
17565;DHT22;62994;52.126;5.596;2022-09-09T05:19:33;14.90;99.90
17565;DHT22;62994;52.126;5.596;2022-09-09T05:22:00;14.90;99.90
17565;DHT22;62994;52.126;5.596;2022-09-09T05:24:26;14.90;99.90
17565;DHT22;62994;52.126;5.596;2022-09-09T05:26:53;14.80;99.90
17565;DHT22;62994;52.126;5.596;2022-09-09T05:29:23;14.90;99.90
17565;DHT22;62994;52.126;5.596;2022-09-09T05:31:50;14.90;99.90
17565;DHT22;62994;52.126;5.596;2022-09-09T05:34:17;14.90;99.90
17565;DHT22;62994;52.126;5.596;2022-09-09T05:36:45;14.80;99.90
17565;DHT22;62994;52.126;5.596;2022-09-09T05:39:13;14.90;99.90
17565;DHT22;62994;52.126;5.596;2022-09-09T05:41:39;14.90;99.90
17565;DHT22;62994;52.126;5.596;2022-09-09T05:44:06;14.90;99.90
17565;DHT22;62994;52.126;5.596;2022-09-09T05:46:33;14.90;99.90
17565;DHT22;62994;52.126;5.596;2022-09-09T05:49:02;14.90;99.90
17565;DHT22;62994;52.126;5.596;2022-09-09T05:51:29;14.90;99.90
17565;DHT22;62994;52.126;5.596;2022-09-09T05:53:58;14.90;99.90
17565;DHT22;62994;52.126;5.596;2022-09-09T05:56:26;15.00;99.90
17565;DHT22;62994;52.126;5.596;2022-09-09T05:58:53;15.00;99.90
17565;DHT22;62994;52.126;5.596;2022-09-09T06:01:22;15.10;99.90
17565;DHT22;62994;52.126;5.596;2022-09-09T06:03:50;15.00;99.90
17565;DHT22;62994;52.126;5.596;2022-09-09T06:06:19;15.10;99.90
17565;DHT22;62994;52.126;5.596;2022-09-09T06:08:47;15.20;99.90
17565;DHT22;62994;52.126;5.596;2022-09-09T06:11:18;15.30;99.90
17565;DHT22;62994;52.126;5.596;2022-09-09T06:13:45;15.30;99.90
17565;DHT22;62994;52.126;5.596;2022-09-09T06:16:15;15.30;99.90
17565;DHT22;62994;52.126;5.596;2022-09-09T06:18:43;15.40;99.90
17565;DHT22;62994;52.126;5.596;2022-09-09T06:21:15;15.40;99.90
17565;DHT22;62994;52.126;5.596;2022-09-09T06:23:43;15.50;99.90
17565;DHT22;62994;52.126;5.596;2022-09-09T06:26:12;15.60;99.90
17565;DHT22;62994;52.126;5.596;2022-09-09T06:28:41;15.60;99.90
17565;DHT22;62994;52.126;5.596;2022-09-09T06:31:10;15.70;99.90
17565;DHT22;62994;52.126;5.596;2022-09-09T06:33:38;15.80;99.90
17565;DHT22;62994;52.126;5.596;2022-09-09T06:36:07;15.90;99.90
17565;DHT22;62994;52.126;5.596;2022-09-09T06:38:36;16.00;99.90
17565;DHT22;62994;52.126;5.596;2022-09-09T06:41:04;16.10;99.90
17565;DHT22;62994;52.126;5.596;2022-09-09T06:43:32;16.10;99.90
17565;DHT22;62994;52.126;5.596;2022-09-09T06:46:01;16.20;99.90
17565;DHT22;62994;52.126;5.596;2022-09-09T06:48:28;16.10;99.90
17565;DHT22;62994;52.126;5.596;2022-09-09T06:51:03;16.20;99.90
17565;DHT22;62994;52.126;5.596;2022-09-09T06:53:31;16.30;99.90
17565;DHT22;62994;52.126;5.596;2022-09-09T06:55:59;16.40;99.90
17565;DHT22;62994;52.126;5.596;2022-09-09T06:58:26;16.40;99.90
17565;DHT22;62994;52.126;5.596;2022-09-09T07:01:03;16.50;99.90
17565;DHT22;62994;52.126;5.596;2022-09-09T07:03:30;16.60;99.90
17565;DHT22;62994;52.126;5.596;2022-09-09T07:05:57;16.60;99.90
17565;DHT22;62994;52.126;5.596;2022-09-09T07:08:25;16.60;99.90
17565;DHT22;62994;52.126;5.596;2022-09-09T07:10:52;16.70;99.90
17565;DHT22;62994;52.126;5.596;2022-09-09T07:13:20;16.90;99.90
17565;DHT22;62994;52.126;5.596;2022-09-09T07:15:51;16.90;99.90
17565;DHT22;62994;52.126;5.596;2022-09-09T07:18:19;17.10;99.90
17565;DHT22;62994;52.126;5.596;2022-09-09T07:20:56;17.20;99.90
17565;DHT22;62994;52.126;5.596;2022-09-09T07:23:23;17.40;99.90
17565;DHT22;62994;52.126;5.596;2022-09-09T07:25:51;17.40;99.90
17565;DHT22;62994;52.126;5.596;2022-09-09T07:28:21;17.50;99.90
17565;DHT22;62994;52.126;5.596;2022-09-09T07:30:53;17.70;99.90
17565;DHT22;62994;52.126;5.596;2022-09-09T07:33:22;17.80;99.90
17565;DHT22;62994;52.126;5.596;2022-09-09T07:36:01;18.00;99.90
17565;DHT22;62994;52.126;5.596;2022-09-09T07:38:29;18.20;99.90
17565;DHT22;62994;52.126;5.596;2022-09-09T07:41:03;18.30;99.90
17565;DHT22;62994;52.126;5.596;2022-09-09T07:43:31;18.30;99.90
17565;DHT22;62994;52.126;5.596;2022-09-09T07:45:59;18.40;99.90
17565;DHT22;62994;52.126;5.596;2022-09-09T07:48:28;18.40;99.90
17565;DHT22;62994;52.126;5.596;2022-09-09T07:51:04;18.40;99.90
17565;DHT22;62994;52.126;5.596;2022-09-09T07:53:32;18.30;99.90
17565;DHT22;62994;52.126;5.596;2022-09-09T07:56:03;18.30;99.90
17565;DHT22;62994;52.126;5.596;2022-09-09T07:58:30;18.20;99.90
17565;DHT22;62994;52.126;5.596;2022-09-09T08:00:57;18.10;99.90
17565;DHT22;62994;52.126;5.596;2022-09-09T08:03:24;18.20;99.90
17565;DHT22;62994;52.126;5.596;2022-09-09T08:06:00;18.10;99.90
17565;DHT22;62994;52.126;5.596;2022-09-09T08:08:28;18.30;99.90
17565;DHT22;62994;52.126;5.596;2022-09-09T08:11:02;18.30;99.90
17565;DHT22;62994;52.126;5.596;2022-09-09T08:13:29;18.20;99.90
17565;DHT22;62994;52.126;5.596;2022-09-09T08:16:04;18.30;99.90
17565;DHT22;62994;52.126;5.596;2022-09-09T08:18:32;18.30;99.90
17565;DHT22;62994;52.126;5.596;2022-09-09T08:21:09;18.40;99.90
17565;DHT22;62994;52.126;5.596;2022-09-09T08:23:39;18.20;99.90
17565;DHT22;62994;52.126;5.596;2022-09-09T08:26:09;18.20;99.90
17565;DHT22;62994;52.126;5.596;2022-09-09T08:28:37;18.20;99.90
17565;DHT22;62994;52.126;5.596;2022-09-09T08:31:08;18.20;99.90
17565;DHT22;62994;52.126;5.596;2022-09-09T08:33:36;18.40;99.90
17565;DHT22;62994;52.126;5.596;2022-09-09T08:36:06;18.40;99.90
17565;DHT22;62994;52.126;5.596;2022-09-09T08:38:34;18.40;99.90
17565;DHT22;62994;52.126;5.596;2022-09-09T08:41:31;18.50;99.90
17565;DHT22;62994;52.126;5.596;2022-09-09T08:44:05;18.60;99.90
17565;DHT22;62994;52.126;5.596;2022-09-09T08:46:40;18.60;99.90
17565;DHT22;62994;52.126;5.596;2022-09-09T08:49:19;18.70;99.90
17565;DHT22;62994;52.126;5.596;2022-09-09T08:51:51;18.60;99.90
17565;DHT22;62994;52.126;5.596;2022-09-09T08:54:18;18.50;99.90
17565;DHT22;62994;52.126;5.596;2022-09-09T08:56:45;18.50;99.90
17565;DHT22;62994;52.126;5.596;2022-09-09T08:59:16;18.50;99.90
17565;DHT22;62994;52.126;5.596;2022-09-09T09:01:55;18.60;99.90
17565;DHT22;62994;52.126;5.596;2022-09-09T09:04:38;18.70;99.90
17565;DHT22;62994;52.126;5.596;2022-09-09T09:07:18;18.60;99.90
17565;DHT22;62994;52.126;5.596;2022-09-09T09:09:57;18.50;99.90
17565;DHT22;62994;52.126;5.596;2022-09-09T09:12:28;18.40;99.90
17565;DHT22;62994;52.126;5.596;2022-09-09T09:14:56;18.40;99.90
17565;DHT22;62994;52.126;5.596;2022-09-09T09:17:26;18.50;99.90
17565;DHT22;62994;52.126;5.596;2022-09-09T09:19:57;18.40;99.90
17565;DHT22;62994;52.126;5.596;2022-09-09T09:22:32;18.40;99.90
17565;DHT22;62994;52.126;5.596;2022-09-09T09:25:09;18.50;99.90
17565;DHT22;62994;52.126;5.596;2022-09-09T09:27:42;18.50;99.90
17565;DHT22;62994;52.126;5.596;2022-09-09T09:30:16;18.50;99.90
17565;DHT22;62994;52.126;5.596;2022-09-09T09:32:49;18.50;99.90
17565;DHT22;62994;52.126;5.596;2022-09-09T09:35:18;18.50;99.90
17565;DHT22;62994;52.126;5.596;2022-09-09T09:37:47;18.60;99.90
17565;DHT22;62994;52.126;5.596;2022-09-09T09:40:19;18.70;99.90
17565;DHT22;62994;52.126;5.596;2022-09-09T09:42:51;18.80;99.90
17565;DHT22;62994;52.126;5.596;2022-09-09T09:45:27;18.90;99.90
17565;DHT22;62994;52.126;5.596;2022-09-09T09:48:01;18.90;99.90
17565;DHT22;62994;52.126;5.596;2022-09-09T09:50:29;19.00;99.90
17565;DHT22;62994;52.126;5.596;2022-09-09T09:53:00;18.80;99.90
17565;DHT22;62994;52.126;5.596;2022-09-09T09:55:30;18.80;99.90
17565;DHT22;62994;52.126;5.596;2022-09-09T09:58:03;18.90;99.90
17565;DHT22;62994;52.126;5.596;2022-09-09T10:00:30;19.00;99.90
17565;DHT22;62994;52.126;5.596;2022-09-09T10:02:59;19.00;99.90
17565;DHT22;62994;52.126;5.596;2022-09-09T10:05:28;19.10;99.90
17565;DHT22;62994;52.126;5.596;2022-09-09T10:08:12;19.10;99.90
17565;DHT22;62994;52.126;5.596;2022-09-09T10:10:54;19.10;99.90
17565;DHT22;62994;52.126;5.596;2022-09-09T10:13:27;19.10;99.90
17565;DHT22;62994;52.126;5.596;2022-09-09T10:16:06;19.10;99.90
17565;DHT22;62994;52.126;5.596;2022-09-09T10:18:52;19.10;99.90
17565;DHT22;62994;52.126;5.596;2022-09-09T10:21:36;19.00;99.90
17565;DHT22;62994;52.126;5.596;2022-09-09T10:24:28;18.90;99.90
17565;DHT22;62994;52.126;5.596;2022-09-09T10:27:05;18.90;99.90
17565;DHT22;62994;52.126;5.596;2022-09-09T10:29:49;18.90;99.90
17565;DHT22;62994;52.126;5.596;2022-09-09T10:32:36;18.80;99.90
17565;DHT22;62994;52.126;5.596;2022-09-09T10:35:10;18.90;99.90
17565;DHT22;62994;52.126;5.596;2022-09-09T10:37:50;18.90;99.90
17565;DHT22;62994;52.126;5.596;2022-09-09T10:40:28;19.00;99.90
17565;DHT22;62994;52.126;5.596;2022-09-09T10:43:04;19.00;99.90
17565;DHT22;62994;52.126;5.596;2022-09-09T10:45:44;19.10;99.90
17565;DHT22;62994;52.126;5.596;2022-09-09T10:51:18;19.40;99.90
17565;DHT22;62994;52.126;5.596;2022-09-09T10:53:53;19.00;99.90
17565;DHT22;62994;52.126;5.596;2022-09-09T10:56:26;18.70;99.90
17565;DHT22;62994;52.126;5.596;2022-09-09T10:58:58;18.30;99.90
17565;DHT22;62994;52.126;5.596;2022-09-09T11:01:30;18.00;99.90
17565;DHT22;62994;52.126;5.596;2022-09-09T11:04:03;17.80;99.90
17565;DHT22;62994;52.126;5.596;2022-09-09T11:06:36;17.80;99.90
17565;DHT22;62994;52.126;5.596;2022-09-09T11:09:05;17.80;99.90
17565;DHT22;62994;52.126;5.596;2022-09-09T11:11:38;17.90;99.90
17565;DHT22;62994;52.126;5.596;2022-09-09T11:14:14;18.00;99.90
17565;DHT22;62994;52.126;5.596;2022-09-09T11:16:45;18.10;99.90
17565;DHT22;62994;52.126;5.596;2022-09-09T11:19:19;18.30;99.90
17565;DHT22;62994;52.126;5.596;2022-09-09T11:21:49;18.40;99.90
17565;DHT22;62994;52.126;5.596;2022-09-09T11:24:21;18.60;99.90
17565;DHT22;62994;52.126;5.596;2022-09-09T11:26:54;18.80;99.90
17565;DHT22;62994;52.126;5.596;2022-09-09T11:29:51;19.00;99.90
17565;DHT22;62994;52.126;5.596;2022-09-09T11:32:57;19.10;99.90
17565;DHT22;62994;52.126;5.596;2022-09-09T11:35:39;19.20;99.90
17565;DHT22;62994;52.126;5.596;2022-09-09T11:38:26;19.00;99.90
17565;DHT22;62994;52.126;5.596;2022-09-09T11:40:58;18.90;99.90
17565;DHT22;62994;52.126;5.596;2022-09-09T11:43:30;18.90;99.90
17565;DHT22;62994;52.126;5.596;2022-09-09T11:46:00;19.10;99.90
17565;DHT22;62994;52.126;5.596;2022-09-09T11:48:38;19.40;99.90
17565;DHT22;62994;52.126;5.596;2022-09-09T11:51:10;19.80;99.90
17565;DHT22;62994;52.126;5.596;2022-09-09T11:53:48;20.20;99.90
17565;DHT22;62994;52.126;5.596;2022-09-09T11:56:25;20.40;99.90
17565;DHT22;62994;52.126;5.596;2022-09-09T11:58:59;20.40;99.90
17565;DHT22;62994;52.126;5.596;2022-09-09T12:01:33;20.30;99.90
17565;DHT22;62994;52.126;5.596;2022-09-09T12:04:26;20.10;99.90
17565;DHT22;62994;52.126;5.596;2022-09-09T12:06:58;19.90;99.90
17565;DHT22;62994;52.126;5.596;2022-09-09T12:09:31;19.90;99.90
17565;DHT22;62994;52.126;5.596;2022-09-09T12:12:22;19.90;99.90
17565;DHT22;62994;52.126;5.596;2022-09-09T12:14:58;19.90;99.90
17565;DHT22;62994;52.126;5.596;2022-09-09T12:17:27;19.90;99.90
17565;DHT22;62994;52.126;5.596;2022-09-09T12:20:06;19.90;99.90
17565;DHT22;62994;52.126;5.596;2022-09-09T12:22:41;20.00;99.90
17565;DHT22;62994;52.126;5.596;2022-09-09T12:25:20;20.10;99.90
17565;DHT22;62994;52.126;5.596;2022-09-09T12:28:02;19.90;99.90
17565;DHT22;62994;52.126;5.596;2022-09-09T12:30:34;19.70;99.90
17565;DHT22;62994;52.126;5.596;2022-09-09T12:33:10;19.50;99.90
17565;DHT22;62994;52.126;5.596;2022-09-09T12:35:38;19.40;99.90
17565;DHT22;62994;52.126;5.596;2022-09-09T12:38:06;19.50;99.90
17565;DHT22;62994;52.126;5.596;2022-09-09T12:40:37;19.50;99.90
17565;DHT22;62994;52.126;5.596;2022-09-09T12:43:17;19.30;99.90
17565;DHT22;62994;52.126;5.596;2022-09-09T12:45:46;19.30;99.90
17565;DHT22;62994;52.126;5.596;2022-09-09T12:48:17;19.20;99.90
17565;DHT22;62994;52.126;5.596;2022-09-09T12:50:47;19.10;99.90
17565;DHT22;62994;52.126;5.596;2022-09-09T12:53:20;19.30;99.90
17565;DHT22;62994;52.126;5.596;2022-09-09T12:55:51;19.40;99.90
17565;DHT22;62994;52.126;5.596;2022-09-09T12:58:19;19.60;99.90
17565;DHT22;62994;52.126;5.596;2022-09-09T13:00:51;19.60;99.90
17565;DHT22;62994;52.126;5.596;2022-09-09T13:03:20;19.50;99.90
17565;DHT22;62994;52.126;5.596;2022-09-09T13:05:47;19.30;99.90
17565;DHT22;62994;52.126;5.596;2022-09-09T13:08:15;19.30;99.90
17565;DHT22;62994;52.126;5.596;2022-09-09T13:10:49;19.30;99.90
17565;DHT22;62994;52.126;5.596;2022-09-09T13:13:22;19.50;99.90
17565;DHT22;62994;52.126;5.596;2022-09-09T13:15:54;19.50;99.90
17565;DHT22;62994;52.126;5.596;2022-09-09T13:18:23;19.40;99.90
17565;DHT22;62994;52.126;5.596;2022-09-09T13:20:52;19.40;99.90
17565;DHT22;62994;52.126;5.596;2022-09-09T13:23:20;19.30;99.90
17565;DHT22;62994;52.126;5.596;2022-09-09T13:25:55;19.30;99.90
17565;DHT22;62994;52.126;5.596;2022-09-09T13:28:24;19.30;99.90
17565;DHT22;62994;52.126;5.596;2022-09-09T13:30:59;19.20;99.90
17565;DHT22;62994;52.126;5.596;2022-09-09T13:33:31;19.30;99.90
17565;DHT22;62994;52.126;5.596;2022-09-09T13:36:01;19.30;99.90
17565;DHT22;62994;52.126;5.596;2022-09-09T13:38:32;19.30;99.90
17565;DHT22;62994;52.126;5.596;2022-09-09T13:41:02;19.50;99.90
17565;DHT22;62994;52.126;5.596;2022-09-09T13:43:31;19.50;99.90
17565;DHT22;62994;52.126;5.596;2022-09-09T13:46:03;19.60;99.90
17565;DHT22;62994;52.126;5.596;2022-09-09T13:48:30;19.70;99.90
17565;DHT22;62994;52.126;5.596;2022-09-09T13:51:00;19.90;99.90
17565;DHT22;62994;52.126;5.596;2022-09-09T13:53:29;20.10;99.90
17565;DHT22;62994;52.126;5.596;2022-09-09T13:55:56;20.20;99.90
17565;DHT22;62994;52.126;5.596;2022-09-09T13:58:24;20.30;99.90
17565;DHT22;62994;52.126;5.596;2022-09-09T14:00:52;20.40;99.90
17565;DHT22;62994;52.126;5.596;2022-09-09T14:03:20;20.50;99.90
17565;DHT22;62994;52.126;5.596;2022-09-09T14:05:47;20.60;99.90
17565;DHT22;62994;52.126;5.596;2022-09-09T14:08:25;20.60;99.90
17565;DHT22;62994;52.126;5.596;2022-09-09T14:10:53;20.60;99.90
17565;DHT22;62994;52.126;5.596;2022-09-09T14:13:24;20.50;99.90
17565;DHT22;62994;52.126;5.596;2022-09-09T14:15:51;20.60;99.90
17565;DHT22;62994;52.126;5.596;2022-09-09T14:18:19;20.50;99.90
17565;DHT22;62994;52.126;5.596;2022-09-09T14:20:48;20.40;99.90
17565;DHT22;62994;52.126;5.596;2022-09-09T14:23:16;20.40;99.90
17565;DHT22;62994;52.126;5.596;2022-09-09T14:25:44;20.40;99.90
17565;DHT22;62994;52.126;5.596;2022-09-09T14:28:13;20.30;99.90
17565;DHT22;62994;52.126;5.596;2022-09-09T14:30:41;20.50;99.90
17565;DHT22;62994;52.126;5.596;2022-09-09T14:33:10;20.50;99.90
17565;DHT22;62994;52.126;5.596;2022-09-09T14:35:42;20.70;99.90
17565;DHT22;62994;52.126;5.596;2022-09-09T14:38:09;20.70;99.90
17565;DHT22;62994;52.126;5.596;2022-09-09T14:40:37;20.70;99.90
17565;DHT22;62994;52.126;5.596;2022-09-09T14:43:05;21.00;99.90
17565;DHT22;62994;52.126;5.596;2022-09-09T14:45:32;21.10;99.90
17565;DHT22;62994;52.126;5.596;2022-09-09T14:47:59;21.20;99.90
17565;DHT22;62994;52.126;5.596;2022-09-09T14:50:26;21.20;99.90
17565;DHT22;62994;52.126;5.596;2022-09-09T14:52:54;21.40;99.90
17565;DHT22;62994;52.126;5.596;2022-09-09T14:55:21;21.80;99.90
17565;DHT22;62994;52.126;5.596;2022-09-09T14:57:48;22.10;99.90
17565;DHT22;62994;52.126;5.596;2022-09-09T15:00:15;22.30;99.90
17565;DHT22;62994;52.126;5.596;2022-09-09T15:02:42;22.40;99.90
17565;DHT22;62994;52.126;5.596;2022-09-09T15:05:09;22.40;99.90
17565;DHT22;62994;52.126;5.596;2022-09-09T15:07:36;22.20;99.90
17565;DHT22;62994;52.126;5.596;2022-09-09T15:10:05;21.80;99.90
17565;DHT22;62994;52.126;5.596;2022-09-09T15:12:33;21.60;99.90
17565;DHT22;62994;52.126;5.596;2022-09-09T15:15:01;21.30;99.90
17565;DHT22;62994;52.126;5.596;2022-09-09T15:17:29;21.10;99.90
17565;DHT22;62994;52.126;5.596;2022-09-09T15:19:56;21.00;99.90
17565;DHT22;62994;52.126;5.596;2022-09-09T15:22:23;21.00;99.90
17565;DHT22;62994;52.126;5.596;2022-09-09T15:24:51;20.90;99.90
17565;DHT22;62994;52.126;5.596;2022-09-09T15:27:19;20.70;99.90
17565;DHT22;62994;52.126;5.596;2022-09-09T15:29:46;20.70;99.90
17565;DHT22;62994;52.126;5.596;2022-09-09T15:32:13;20.70;99.90
17565;DHT22;62994;52.126;5.596;2022-09-09T15:34:40;20.80;99.90
17565;DHT22;62994;52.126;5.596;2022-09-09T15:37:10;21.00;99.90
17565;DHT22;62994;52.126;5.596;2022-09-09T15:39:39;21.10;99.90
17565;DHT22;62994;52.126;5.596;2022-09-09T15:42:06;21.10;99.90
17565;DHT22;62994;52.126;5.596;2022-09-09T15:44:40;21.10;99.90
17565;DHT22;62994;52.126;5.596;2022-09-09T15:47:10;21.10;99.90
17565;DHT22;62994;52.126;5.596;2022-09-09T15:49:39;21.00;99.90
17565;DHT22;62994;52.126;5.596;2022-09-09T15:52:06;20.90;99.90
17565;DHT22;62994;52.126;5.596;2022-09-09T15:54:34;20.90;99.90
17565;DHT22;62994;52.126;5.596;2022-09-09T15:57:04;20.90;99.90
17565;DHT22;62994;52.126;5.596;2022-09-09T15:59:31;20.90;99.90
17565;DHT22;62994;52.126;5.596;2022-09-09T16:02:02;20.90;99.90